createdAt,value
2018-02-06T00:00:23.503Z,19.20
2018-02-06T00:02:50.961Z,19.52
2018-02-06T00:05:18.401Z,17.55
2018-02-06T00:07:45.814Z,23.60
2018-02-06T00:10:13.226Z,18.17
2018-02-06T00:12:40.650Z,21.02
2018-02-06T00:15:08.062Z,20.92
2018-02-06T00:17:35.494Z,29.30
2018-02-06T00:20:02.914Z,23.17
2018-02-06T00:22:42.188Z,20.75
2018-02-06T00:25:09.622Z,15.57
2018-02-06T00:27:37.080Z,21.65
2018-02-06T00:30:04.556Z,24.60
2018-02-06T00:32:31.973Z,21.12
2018-02-06T00:34:59.471Z,20.23
2018-02-06T00:37:26.904Z,21.23
2018-02-06T00:39:54.309Z,21.48
2018-02-06T00:42:21.731Z,21.33
2018-02-06T00:44:49.168Z,21.67
2018-02-06T00:47:16.578Z,22.87
2018-02-06T00:49:44.757Z,24.33
2018-02-06T00:52:12.189Z,28.23
2018-02-06T00:54:39.637Z,27.45
2018-02-06T00:57:07.074Z,21.52
2018-02-06T00:59:34.500Z,17.83
2018-02-06T01:02:01.950Z,22.15
2018-02-06T01:04:29.374Z,24.70
2018-02-06T01:06:56.793Z,18.67
2018-02-06T01:09:24.213Z,21.17
2018-02-06T01:11:51.744Z,23.83
2018-02-06T01:14:19.164Z,11.70
2018-02-06T01:16:47.371Z,22.65
2018-02-06T01:19:14.793Z,20.62
2018-02-06T01:21:42.310Z,20.77
2018-02-06T01:24:09.752Z,23.23
2018-02-06T01:26:37.203Z,22.05
2018-02-06T01:29:04.581Z,14.65
2018-02-06T01:31:32.013Z,18.08
2018-02-06T01:33:59.425Z,21.50
2018-02-06T01:36:27.662Z,20.17
2018-02-06T01:38:55.081Z,25.85
2018-02-06T01:41:23.276Z,17.48
2018-02-06T01:43:51.450Z,33.72
2018-02-06T01:46:19.639Z,25.35
2018-02-06T01:48:47.825Z,24.77
2018-02-06T01:51:16.009Z,19.02
2018-02-06T01:53:44.248Z,25.98
2018-02-06T01:56:11.690Z,18.90
2018-02-06T01:58:39.112Z,26.58
2018-02-06T02:01:06.523Z,23.58
2018-02-06T02:03:33.938Z,21.92
2018-02-06T02:06:01.358Z,25.10
2018-02-06T02:08:28.836Z,26.25
2018-02-06T02:10:56.251Z,31.42
2018-02-06T02:13:23.701Z,27.40
2018-02-06T02:15:51.145Z,27.35
2018-02-06T02:18:18.558Z,24.35
2018-02-06T02:20:46.073Z,26.30
2018-02-06T02:23:13.481Z,23.65
2018-02-06T02:25:40.901Z,24.20
2018-02-06T02:28:08.321Z,31.92
2018-02-06T02:30:35.745Z,21.50
2018-02-06T02:33:03.156Z,25.62
2018-02-06T02:35:30.623Z,21.42
2018-02-06T02:37:58.070Z,26.33
2018-02-06T02:40:25.485Z,23.60
2018-02-06T04:38:34.893Z,36.20
2018-02-06T04:41:02.360Z,39.75
2018-02-06T04:43:30.595Z,32.65
2018-02-06T04:45:58.130Z,33.47
2018-02-06T04:48:25.557Z,45.80
2018-02-06T04:50:53.753Z,46.10
2018-02-06T04:53:21.947Z,33.83
2018-02-06T04:55:49.422Z,43.50
2018-02-06T04:58:16.858Z,26.75
2018-02-06T05:00:44.282Z,37.83
2018-02-06T05:03:11.733Z,24.75
2018-02-06T05:05:39.155Z,37.10
2018-02-06T05:08:06.685Z,38.63
2018-02-06T05:10:34.110Z,35.40
2018-02-06T05:13:02.314Z,35.15
2018-02-06T05:15:29.797Z,36.33
2018-02-06T05:17:57.228Z,35.67
2018-02-06T05:20:24.733Z,37.50
2018-02-06T05:22:52.164Z,39.80
2018-02-06T05:25:19.602Z,39.08
2018-02-06T05:27:47.021Z,39.92
2018-02-06T05:30:14.537Z,33.85
2018-02-06T05:32:41.967Z,41.85
2018-02-06T05:35:10.150Z,32.50
2018-02-06T05:37:37.633Z,31.12
2018-02-06T05:40:05.798Z,34.75
2018-02-06T05:42:33.981Z,33.63
2018-02-06T05:45:02.190Z,29.08
2018-02-06T05:47:29.610Z,34.08
2018-02-06T05:49:57.052Z,27.98
2018-02-06T05:52:24.510Z,28.05
2018-02-06T05:54:51.936Z,41.97
2018-02-06T05:57:19.365Z,31.40
2018-02-06T05:59:46.785Z,21.40
2018-02-06T06:02:14.972Z,33.15
2018-02-06T06:04:42.388Z,24.37
2018-02-06T06:07:09.818Z,33.90
2018-02-06T06:09:37.269Z,26.62
2018-02-06T06:12:05.480Z,23.67
2018-02-06T06:14:32.890Z,39.35
2018-02-06T06:17:01.817Z,29.48
2018-02-06T06:19:30.017Z,28.52
2018-02-06T06:21:58.238Z,29.05
2018-02-06T06:24:25.661Z,32.05
2018-02-06T06:26:53.979Z,34.55
2018-02-06T06:29:22.277Z,30.67
2018-02-06T06:31:49.769Z,31.55
2018-02-06T06:34:17.178Z,32.03
2018-02-06T06:36:45.385Z,36.65
2018-02-06T06:39:12.862Z,38.03
2018-02-06T06:41:40.306Z,27.02
2018-02-06T06:44:07.756Z,46.72
2018-02-06T06:46:35.166Z,35.58
2018-02-06T06:49:02.580Z,28.35
2018-02-06T06:51:30.027Z,37.75
2018-02-06T06:53:57.441Z,30.85
2018-02-06T06:56:25.637Z,30.17
2018-02-06T06:58:53.834Z,24.87
2018-02-06T07:01:21.313Z,29.00
2018-02-06T07:03:48.767Z,22.48
2018-02-06T07:06:16.265Z,31.65
2018-02-06T07:08:43.681Z,33.17
2018-02-06T07:11:11.902Z,34.45
2018-02-06T07:13:39.323Z,24.27
2018-02-06T07:16:06.850Z,31.10
2018-02-06T07:18:34.288Z,31.80
2018-02-06T07:21:02.490Z,40.95
2018-02-06T07:23:29.970Z,31.10
2018-02-06T07:25:57.400Z,17.02
2018-02-06T07:28:25.631Z,39.38
2018-02-06T07:30:53.040Z,32.97
2018-02-06T07:33:20.478Z,38.72
2018-02-06T07:35:47.947Z,31.50
2018-02-06T07:38:15.372Z,30.83
2018-02-06T07:40:43.585Z,27.70
2018-02-06T07:43:11.745Z,40.78
2018-02-06T07:45:40.001Z,28.83
2018-02-06T07:48:07.389Z,21.42
2018-02-06T07:50:35.573Z,32.88
2018-02-06T07:53:03.762Z,35.28
2018-02-06T07:55:31.953Z,30.73
2018-02-06T07:57:59.383Z,28.58
2018-02-06T08:00:26.814Z,35.08
2018-02-06T08:02:54.293Z,24.95
2018-02-06T08:05:21.716Z,26.45
2018-02-06T08:07:49.150Z,31.55
2018-02-06T08:10:16.576Z,30.65
2018-02-06T08:12:44.017Z,31.12
2018-02-06T08:15:11.455Z,35.67
2018-02-06T08:17:38.877Z,34.80
2018-02-06T08:20:06.314Z,30.60
2018-02-06T08:22:34.508Z,37.70
2018-02-06T08:25:02.699Z,33.15
2018-02-06T08:27:30.917Z,33.70
2018-02-06T08:29:58.422Z,27.95
2018-02-06T08:32:25.824Z,32.75
2018-02-06T08:34:54.027Z,33.30
2018-02-06T08:37:22.283Z,32.80
2018-02-06T08:39:49.720Z,21.15
2018-02-06T08:42:17.174Z,34.95
2018-02-06T08:44:44.558Z,31.70
2018-02-06T08:47:11.987Z,35.63
2018-02-06T08:49:40.190Z,34.72
2018-02-06T08:52:07.618Z,30.12
2018-02-06T08:54:35.142Z,30.55
2018-02-06T08:57:02.606Z,26.95
2018-02-06T08:59:30.894Z,30.55
2018-02-06T09:01:59.114Z,33.63
2018-02-06T09:04:26.539Z,29.08
2018-02-06T09:06:54.730Z,21.20
2018-02-06T09:09:22.920Z,25.62
2018-02-06T09:11:51.105Z,44.80
2018-02-06T09:14:18.693Z,34.78
2018-02-06T09:16:46.864Z,31.20
2018-02-06T09:19:14.346Z,26.05
2018-02-06T09:21:42.529Z,23.95
2018-02-06T09:24:10.705Z,35.67
2018-02-06T09:26:38.190Z,32.85
2018-02-06T09:29:06.373Z,22.05
2018-02-06T09:31:33.798Z,28.40
2018-02-06T09:34:01.320Z,32.97
2018-02-06T09:36:28.754Z,46.22
2018-02-06T09:38:56.143Z,15.73
2018-02-06T09:41:23.623Z,35.10
2018-02-06T09:43:51.053Z,33.95
2018-02-06T09:46:18.504Z,28.58
2018-02-06T09:48:45.902Z,36.13
2018-02-06T09:51:13.333Z,26.27
2018-02-06T09:53:40.747Z,40.38
2018-02-06T09:56:08.166Z,36.40
2018-02-06T09:58:35.635Z,33.28
2018-02-06T10:01:03.047Z,37.58
2018-02-06T10:03:30.516Z,31.98
2018-02-06T10:05:57.914Z,31.75
2018-02-06T10:08:25.362Z,26.30
2018-02-06T10:10:52.781Z,29.05
2018-02-06T10:13:20.202Z,28.05
2018-02-06T10:15:47.620Z,28.90
2018-02-06T10:18:15.039Z,27.90
2018-02-06T10:20:42.457Z,37.72
2018-02-06T10:23:09.888Z,36.92
2018-02-06T10:25:37.301Z,34.08
2018-02-06T10:28:05.525Z,30.67
2018-02-06T10:30:33.711Z,38.90
2018-02-06T10:33:01.180Z,33.95
2018-02-06T10:35:29.341Z,34.88
2018-02-06T10:37:57.563Z,29.40
2018-02-06T10:40:25.035Z,26.25
2018-02-06T10:42:52.512Z,29.67
2018-02-06T10:45:19.966Z,28.95
2018-02-06T10:47:47.379Z,38.78
2018-02-06T10:50:14.790Z,31.52
2018-02-06T10:52:42.258Z,39.38
2018-02-06T10:55:09.848Z,30.88
2018-02-06T10:57:37.267Z,27.02
2018-02-06T11:00:04.701Z,25.65
2018-02-06T11:02:32.157Z,24.63
2018-02-06T11:04:59.624Z,23.17
2018-02-06T11:07:27.060Z,25.25
2018-02-06T11:09:54.457Z,26.20
2018-02-06T11:12:21.894Z,23.95
2018-02-06T11:14:49.366Z,14.77
2018-02-06T11:17:16.781Z,17.85
2018-02-06T11:19:44.209Z,21.33
2018-02-06T11:22:11.687Z,27.27
2018-02-06T11:24:39.125Z,24.77
2018-02-06T11:27:07.313Z,24.17
2018-02-06T11:29:35.494Z,27.87
2018-02-06T11:32:02.925Z,26.58
2018-02-06T11:34:30.339Z,23.55
2018-02-06T11:36:58.547Z,29.00
2018-02-06T11:39:26.029Z,30.12
2018-02-06T11:41:53.594Z,23.02
2018-02-06T11:44:21.752Z,26.35
2018-02-06T11:46:50.066Z,25.88
2018-02-06T11:49:18.819Z,23.08
2018-02-06T11:51:46.337Z,26.50
2018-02-06T11:54:13.760Z,27.45
2018-02-06T11:56:41.271Z,16.85
2018-02-06T11:59:08.734Z,25.20
2018-02-06T12:01:36.166Z,17.60
2018-02-06T12:04:03.634Z,20.95
2018-02-06T12:06:31.073Z,23.33
2018-02-06T12:08:58.479Z,19.65
2018-02-06T12:11:25.909Z,24.30
2018-02-06T12:13:53.350Z,30.83
2018-02-06T12:16:20.818Z,20.75
2018-02-06T12:18:48.257Z,22.48
2018-02-06T12:21:16.448Z,24.65
2018-02-06T12:23:44.633Z,19.55
2018-02-06T12:26:12.819Z,21.55
2018-02-06T12:28:41.007Z,26.08
2018-02-06T12:31:09.233Z,24.83
2018-02-06T12:33:36.661Z,22.90
2018-02-06T12:36:04.865Z,24.90
2018-02-06T12:38:32.285Z,21.93
2018-02-06T12:40:59.701Z,33.23
2018-02-06T12:43:27.135Z,26.00
2018-02-06T12:45:55.362Z,26.43
2018-02-06T12:48:22.781Z,31.93
2018-02-06T12:50:50.221Z,26.70
2018-02-06T12:53:17.653Z,28.83
2018-02-06T12:55:45.077Z,29.35
2018-02-06T12:58:12.516Z,21.27
2018-02-06T13:00:39.925Z,24.17
2018-02-06T13:03:07.348Z,28.38
2018-02-06T13:05:34.773Z,25.23
2018-02-06T13:08:02.980Z,28.10
2018-02-06T13:10:31.294Z,25.65
2018-02-06T13:12:58.723Z,28.67
2018-02-06T13:15:26.916Z,28.25
2018-02-06T13:17:55.095Z,32.90
2018-02-06T13:20:23.314Z,30.60
2018-02-06T13:22:50.725Z,34.70
2018-02-06T13:25:18.149Z,28.53
2018-02-06T13:27:45.610Z,30.45
2018-02-06T13:30:13.765Z,25.27
2018-02-06T13:32:41.973Z,27.67
2018-02-06T13:35:09.471Z,29.27
2018-02-06T13:37:37.026Z,31.20
2018-02-06T13:40:04.436Z,32.93
2018-02-06T13:42:31.873Z,28.87
2018-02-06T13:44:59.292Z,19.80
2018-02-06T13:47:26.705Z,28.03
2018-02-06T13:49:54.125Z,24.87
2018-02-06T13:52:22.320Z,23.70
2018-02-06T13:54:50.532Z,32.05
2018-02-06T13:57:18.120Z,21.77
2018-02-06T13:59:45.575Z,27.77
2018-02-06T14:02:12.932Z,30.98
2018-02-06T14:04:40.411Z,34.85
2018-02-06T14:07:08.574Z,29.48
2018-02-06T14:09:36.021Z,27.98
2018-02-06T14:12:03.434Z,26.37
2018-02-06T14:14:30.861Z,26.00
2018-02-06T14:16:58.290Z,29.08
2018-02-06T14:19:25.749Z,34.25
2018-02-06T14:21:53.205Z,26.42
2018-02-06T14:24:20.639Z,34.55
2018-02-06T14:26:48.050Z,23.27
2018-02-06T14:29:15.507Z,24.90
2018-02-06T14:31:43.045Z,23.95
2018-02-06T14:34:10.478Z,28.25
2018-02-06T14:36:37.896Z,28.67
2018-02-06T14:39:05.331Z,29.15
2018-02-06T14:41:32.790Z,30.42
2018-02-06T14:44:00.286Z,31.73
2018-02-06T14:46:27.702Z,22.92
2018-02-06T14:48:55.886Z,37.05
2018-02-06T14:51:23.331Z,32.15
2018-02-06T14:53:50.806Z,30.85
2018-02-06T14:56:18.388Z,31.75
2018-02-06T14:58:45.823Z,30.02
2018-02-06T15:01:13.290Z,37.15
2018-02-06T15:03:40.706Z,28.70
2018-02-06T15:06:08.134Z,29.40
2018-02-06T15:08:36.309Z,28.10
2018-02-06T15:11:04.515Z,32.13
2018-02-06T15:13:31.962Z,34.15
2018-02-06T15:15:59.424Z,23.12
2018-02-06T15:18:27.617Z,26.30
2018-02-06T15:20:55.872Z,25.37
2018-02-06T15:23:23.335Z,28.30
2018-02-06T15:25:50.763Z,29.87
2018-02-06T15:28:19.025Z,30.98
2018-02-06T15:30:46.462Z,30.58
2018-02-06T15:33:13.921Z,30.42
2018-02-06T15:35:41.309Z,28.15
2018-02-06T15:38:08.745Z,24.83
2018-02-06T15:40:36.234Z,26.45
2018-02-06T15:43:03.652Z,36.92
2018-02-06T15:45:31.079Z,19.70
2018-02-06T15:47:58.545Z,27.60
2018-02-06T15:50:25.987Z,25.17
2018-02-06T15:52:54.203Z,25.50
2018-02-06T15:55:21.713Z,41.55
2018-02-06T15:57:49.170Z,29.17
2018-02-06T16:03:16.413Z,23.02
2018-02-06T16:05:43.845Z,31.60
2018-02-06T16:08:11.456Z,31.10
2018-02-06T16:10:38.870Z,28.92
2018-02-06T16:13:06.439Z,29.17
2018-02-06T16:15:34.661Z,26.12
2018-02-06T16:18:02.150Z,33.97
2018-02-06T16:20:29.631Z,29.63
2018-02-06T16:22:57.094Z,33.78
2018-02-06T16:25:24.832Z,35.75
2018-02-06T16:27:52.247Z,31.17
2018-02-06T16:30:19.703Z,37.08
2018-02-06T16:32:47.166Z,30.60
2018-02-06T16:35:14.689Z,32.70
2018-02-06T16:37:42.174Z,30.85
2018-02-06T16:40:09.723Z,41.35
2018-02-06T16:42:37.949Z,45.78
2018-02-06T16:45:05.394Z,33.90
2018-02-06T16:47:32.817Z,32.55
2018-02-06T16:50:01.043Z,29.37
2018-02-06T16:52:29.322Z,33.42
2018-02-06T16:54:56.730Z,34.10
2018-02-06T16:57:24.203Z,32.65
2018-02-06T16:59:51.641Z,41.58
2018-02-06T17:02:30.859Z,35.22
2018-02-06T17:04:59.080Z,29.30
2018-02-06T17:07:26.503Z,27.45
2018-02-06T17:09:54.711Z,34.40
2018-02-06T17:12:22.938Z,31.48
2018-02-06T17:14:50.358Z,31.98
2018-02-06T17:17:18.928Z,39.05
2018-02-06T17:19:46.361Z,41.45
2018-02-06T17:22:14.524Z,33.92
2018-02-06T17:24:42.027Z,38.75
2018-02-06T17:27:09.459Z,29.73
2018-02-06T17:29:37.655Z,30.48
2018-02-06T17:32:05.128Z,37.33
2018-02-06T17:34:32.608Z,37.25
2018-02-06T17:37:00.062Z,23.45
2018-02-06T17:39:27.480Z,35.90
2018-02-06T17:41:54.900Z,32.85
2018-02-06T17:44:22.377Z,25.30
2018-02-06T17:46:49.841Z,30.58
2018-02-06T17:49:18.044Z,35.17
2018-02-06T17:51:45.466Z,34.15
2018-02-06T17:54:13.641Z,36.53
2018-02-06T17:56:41.845Z,27.23
2018-02-06T17:59:10.050Z,25.40
2018-02-06T18:01:38.236Z,35.10
2018-02-06T18:04:06.418Z,41.05
2018-02-06T18:06:33.835Z,30.23
2018-02-06T18:09:01.249Z,22.58
2018-02-06T18:11:28.727Z,32.47
2018-02-06T18:13:56.151Z,24.58
2018-02-06T18:16:23.577Z,37.30
2018-02-06T18:18:51.016Z,30.25
2018-02-06T18:21:19.193Z,39.97
2018-02-06T18:23:46.708Z,30.90
2018-02-06T18:26:14.102Z,29.90
2018-02-06T18:28:41.726Z,31.10
2018-02-06T18:31:09.196Z,31.67
2018-02-06T18:33:38.177Z,34.83
2018-02-06T18:36:06.476Z,35.15
2018-02-06T18:38:33.938Z,34.17
2018-02-06T18:41:01.485Z,37.50
2018-02-06T18:43:28.955Z,33.50
2018-02-06T18:45:57.926Z,37.00
2018-02-06T18:48:25.406Z,35.03
2018-02-06T18:50:52.882Z,30.48
2018-02-06T18:53:20.360Z,24.50
2018-02-06T18:58:20.805Z,28.92
2018-02-06T19:00:48.278Z,33.95
2018-02-06T19:03:15.721Z,42.53
2018-02-06T19:05:43.157Z,39.47
2018-02-06T19:08:11.404Z,35.53
2018-02-06T19:10:38.834Z,37.63
2018-02-06T19:13:06.301Z,40.08
2018-02-06T19:15:33.768Z,36.47
2018-02-06T19:18:01.166Z,48.63
2018-02-06T19:20:28.589Z,43.42
2018-02-06T19:22:56.906Z,47.60
2018-02-06T19:25:24.329Z,44.03
2018-02-06T19:27:51.762Z,41.33
2018-02-06T19:30:19.187Z,44.70
2018-02-06T19:32:47.373Z,51.67
2018-02-06T19:35:14.808Z,42.05
2018-02-06T19:37:42.235Z,44.40
2018-02-06T19:40:09.651Z,40.83
2018-02-06T19:42:37.072Z,45.17
2018-02-06T19:45:04.502Z,42.00
2018-02-06T19:47:31.948Z,45.50
2018-02-06T19:49:59.377Z,40.22
2018-02-06T19:52:26.789Z,42.83
2018-02-06T19:54:54.221Z,36.10
2018-02-06T19:57:21.661Z,44.00
2018-02-06T19:59:49.103Z,45.72
2018-02-06T20:02:16.505Z,40.22
2018-02-06T20:04:43.925Z,40.80
2018-02-06T20:07:11.341Z,44.22
2018-02-06T20:09:38.761Z,36.85
2018-02-06T20:12:06.288Z,43.60
2018-02-06T20:14:33.702Z,39.88
2018-02-06T20:17:01.222Z,43.22
2018-02-06T20:19:28.635Z,62.85
2018-02-06T20:21:56.054Z,132.77
2018-02-06T20:24:23.466Z,97.10
2018-02-06T20:26:51.006Z,84.95
2018-02-06T20:29:18.453Z,170.55
2018-02-06T20:31:46.630Z,72.43
2018-02-06T20:34:14.120Z,105.20
2018-02-06T20:36:41.550Z,57.50
2018-02-06T20:39:09.761Z,403.27
2018-02-06T20:41:37.343Z,55.30
2018-02-06T20:44:05.529Z,175.50
2018-02-06T20:46:33.701Z,165.90
2018-02-06T20:49:01.190Z,572.55
2018-02-06T20:51:28.638Z,524.45
2018-02-06T20:56:30.777Z,229.73
2018-02-06T20:58:58.217Z,248.50
2018-02-06T21:01:25.697Z,304.15
2018-02-06T21:03:53.133Z,61.47
2018-02-06T21:06:20.641Z,77.93
2018-02-06T21:08:48.821Z,121.28
2018-02-06T21:11:16.973Z,74.03
2018-02-06T21:13:45.149Z,63.95
2018-02-06T21:16:12.577Z,60.80
2018-02-06T21:18:40.030Z,82.20
2018-02-06T21:21:07.457Z,86.12
2018-02-06T21:23:35.648Z,46.10
2018-02-06T21:26:03.053Z,57.70
2018-02-06T21:28:30.526Z,37.05
2018-02-06T21:30:57.935Z,44.15
2018-02-06T21:33:25.350Z,58.35
2018-02-06T21:35:52.767Z,47.55
2018-02-06T21:38:20.426Z,45.55
2018-02-06T21:40:47.856Z,54.75
2018-02-06T21:43:15.262Z,103.60
2018-02-06T21:45:42.677Z,82.47
2018-02-06T21:48:10.861Z,47.80
2018-02-06T21:50:39.061Z,65.68
2018-02-06T21:53:06.481Z,53.15
2018-02-06T21:55:33.898Z,77.22
2018-02-06T21:58:01.390Z,41.50
2018-02-06T22:00:28.846Z,43.38
2018-02-06T22:02:56.261Z,38.78
2018-02-06T22:05:23.783Z,41.58
2018-02-06T22:07:51.946Z,43.40
2018-02-06T22:10:20.133Z,42.35
2018-02-06T22:12:48.325Z,40.00
2018-02-06T22:15:16.517Z,39.95
2018-02-06T22:17:44.096Z,38.97
2018-02-06T22:20:12.259Z,41.58
2018-02-06T22:22:40.434Z,41.90
2018-02-06T22:25:08.621Z,36.42
2018-02-06T22:27:36.822Z,39.88
2018-02-06T22:30:05.010Z,41.95
2018-02-06T22:32:34.225Z,43.97
2018-02-06T22:35:01.656Z,40.72
2018-02-06T22:37:29.114Z,41.90
2018-02-06T22:39:56.498Z,44.13
2018-02-06T22:42:23.922Z,41.88
2018-02-06T22:44:51.394Z,48.95
2018-02-06T22:47:18.806Z,44.95
2018-02-06T22:49:47.007Z,55.42
2018-02-06T22:52:15.190Z,92.70
2018-02-06T22:54:43.396Z,70.35
2018-02-06T22:57:10.810Z,46.17
2018-02-06T22:59:38.240Z,89.75
2018-02-06T23:02:05.661Z,191.32
2018-02-06T23:04:33.097Z,261.48
2018-02-06T23:07:00.541Z,114.80
2018-02-06T23:09:27.960Z,161.57
2018-02-06T23:11:55.489Z,277.62
2018-02-06T23:14:22.905Z,131.93
2018-02-06T23:16:50.418Z,273.15
2018-02-06T23:19:17.972Z,199.32
2018-02-06T23:21:45.382Z,364.40
2018-02-06T23:24:12.802Z,1522.28
2018-02-06T23:26:41.022Z,579.92
2018-02-06T23:29:08.438Z,1013.40
2018-02-06T23:31:35.880Z,707.65
2018-02-06T23:34:03.310Z,246.10
2018-02-06T23:36:31.522Z,95.22
2018-02-06T23:38:58.995Z,58.10
2018-02-06T23:41:26.421Z,126.50
2018-02-06T23:43:54.668Z,95.40
2018-02-06T23:46:22.150Z,59.55
2018-02-06T23:48:49.599Z,53.38
2018-02-06T23:51:17.030Z,62.75
2018-02-06T23:53:45.220Z,56.47
2018-02-06T23:56:12.716Z,48.17
2018-02-06T23:58:40.187Z,44.05
